Time;durP1;ratioP1;P1;durP2;ratioP2;P2;SDS_P1;SDS_P2;PMS_P1;PMS_P2;Temp;Humidity;BMP_temperature;BMP_pressure;BME280_temperature;BME280_humidity;BME280_pressure;Samples;Min_cycle;Max_cycle;Signal;HPM_P1;HPM_P2
2022/11/02 00:01:20;;;;;;;8.70;0.55;;;14.00;99.90;;;;;;5015876;28;20040;-95
2022/11/02 00:03:46;;;;;;;8.68;0.60;;;14.00;99.90;;;;;;5016976;28;20044;-93
2022/11/02 00:06:12;;;;;;;5.82;0.40;;;14.00;99.90;;;;;;5018518;28;20041;-93
2022/11/02 00:08:37;;;;;;;6.60;0.80;;;14.00;99.90;;;;;;5015943;28;20115;-94
2022/11/02 00:11:03;;;;;;;6.72;0.50;;;13.90;99.90;;;;;;5014218;28;20037;-94
2022/11/02 00:13:28;;;;;;;6.68;0.60;;;14.00;99.90;;;;;;5015751;28;20636;-94
2022/11/02 00:15:54;;;;;;;13.15;0.85;;;14.00;99.90;;;;;;5032689;28;20037;-92
2022/11/02 00:18:21;;;;;;;13.70;0.90;;;14.00;99.90;;;;;;5024695;28;20038;-95
2022/11/02 00:20:47;;;;;;;13.98;2.15;;;14.00;99.90;;;;;;5026871;28;20042;-96
2022/11/02 00:23:15;;;;;;;10.45;0.50;;;13.90;99.90;;;;;;5030006;28;20022;-95
2022/11/02 00:25:46;;;;;;;9.10;0.70;;;13.70;99.90;;;;;;5033752;28;20045;-96
2022/11/02 00:28:13;;;;;;;13.98;1.65;;;13.60;99.90;;;;;;5026450;28;20018;-96
2022/11/02 00:30:40;;;;;;;8.77;0.60;;;13.50;99.90;;;;;;5027550;28;20054;-96
2022/11/02 00:33:06;;;;;;;12.50;1.10;;;13.40;99.90;;;;;;5020688;28;20090;-94
2022/11/02 00:35:33;;;;;;;5.53;0.55;;;13.30;99.90;;;;;;5023792;28;20052;-96
2022/11/02 00:37:58;;;;;;;9.73;0.47;;;13.20;99.90;;;;;;5017139;28;20049;-95
2022/11/02 00:40:24;;;;;;;7.65;0.50;;;13.20;99.90;;;;;;5004514;28;20038;-94
2022/11/02 00:42:49;;;;;;;11.25;0.63;;;13.10;99.90;;;;;;5019952;28;20018;-95
2022/11/02 00:45:15;;;;;;;12.18;0.60;;;13.10;99.90;;;;;;5019847;28;20042;-95
2022/11/02 00:47:41;;;;;;;6.43;0.40;;;13.00;99.90;;;;;;5027850;28;20034;-95
2022/11/02 00:50:07;;;;;;;5.43;0.43;;;13.00;99.90;;;;;;5021878;28;20034;-95
2022/11/02 00:52:32;;;;;;;11.90;0.52;;;13.10;99.90;;;;;;5017551;28;20144;-96
2022/11/02 00:54:58;;;;;;;6.95;0.40;;;13.10;99.90;;;;;;5012404;28;20034;-95
2022/11/02 00:57:23;;;;;;;7.60;0.50;;;13.10;99.90;;;;;;5016880;28;20045;-95
2022/11/02 00:59:49;;;;;;;8.40;0.50;;;13.10;99.90;;;;;;5019631;28;20038;-95
2022/11/02 01:02:15;;;;;;;4.85;0.45;;;13.10;99.90;;;;;;5016286;28;20030;-95
2022/11/02 01:04:40;;;;;;;7.50;0.63;;;13.10;99.90;;;;;;5024003;28;20018;-95
2022/11/02 01:07:06;;;;;;;7.32;0.60;;;13.00;99.90;;;;;;5018232;28;20405;-95
2022/11/02 01:09:33;;;;;;;8.52;0.40;;;13.00;99.90;;;;;;5015227;28;20556;-96
2022/11/02 01:11:59;;;;;;;4.05;0.32;;;12.90;99.90;;;;;;5018171;28;20034;-95
2022/11/02 01:14:24;;;;;;;10.75;0.50;;;12.80;99.90;;;;;;5021046;28;20041;-96
2022/11/02 01:16:50;;;;;;;7.63;0.85;;;12.80;99.90;;;;;;5015964;28;20085;-95
2022/11/02 01:19:15;;;;;;;8.63;0.60;;;12.70;99.90;;;;;;5013261;28;20061;-95
2022/11/02 01:21:41;;;;;;;7.55;0.57;;;12.60;99.90;;;;;;5015897;28;20022;-95
2022/11/02 01:24:07;;;;;;;5.80;0.50;;;12.60;99.90;;;;;;5017731;28;20033;-94
2022/11/02 01:26:32;;;;;;;9.77;0.80;;;12.60;99.90;;;;;;5019201;28;20038;-95
2022/11/02 01:28:58;;;;;;;5.97;0.60;;;12.50;99.90;;;;;;5015471;28;20084;-94
2022/11/02 01:31:24;;;;;;;6.07;0.40;;;12.50;99.90;;;;;;5014938;28;20064;-93
2022/11/02 01:33:49;;;;;;;8.55;0.60;;;12.50;99.90;;;;;;5021568;28;20029;-92
2022/11/02 01:36:19;;;;;;;4.85;0.40;;;12.60;99.90;;;;;;5014243;28;20038;-94
2022/11/02 01:38:45;;;;;;;8.43;0.50;;;12.70;99.90;;;;;;5016252;28;20026;-95
2022/11/02 01:41:11;;;;;;;5.97;0.73;;;12.70;99.90;;;;;;5015342;28;20505;-92
2022/11/02 01:43:37;;;;;;;6.95;0.50;;;12.80;99.90;;;;;;5018318;28;20022;-94
2022/11/02 01:46:14;;;;;;;4.05;0.68;;;12.90;99.90;;;;;;5015175;28;20069;-93
2022/11/02 01:48:45;;;;;;;8.15;0.43;;;12.90;99.90;;;;;;5013244;28;20034;-94
2022/11/02 01:51:21;;;;;;;6.72;0.60;;;12.90;99.90;;;;;;5012661;28;20026;-94
2022/11/02 01:53:49;;;;;;;6.78;0.45;;;13.00;99.90;;;;;;5016204;28;20032;-95
2022/11/02 01:56:18;;;;;;;2.42;0.30;;;13.00;99.90;;;;;;5020511;28;20026;-95
2022/11/02 01:58:47;;;;;;;6.40;0.30;;;13.00;99.90;;;;;;5016046;28;20025;-94
2022/11/02 02:01:13;;;;;;;1.67;0.30;;;13.00;99.90;;;;;;5016689;28;20466;-94
2022/11/02 02:03:41;;;;;;;3.60;0.20;;;12.90;99.90;;;;;;5015004;28;20030;-94
2022/11/02 02:06:11;;;;;;;4.75;0.22;;;12.70;99.90;;;;;;5031815;28;20041;-94
2022/11/02 02:08:42;;;;;;;2.10;0.30;;;12.60;99.90;;;;;;5012283;28;20486;-95
2022/11/02 02:11:25;;;;;;;3.17;0.10;;;12.40;99.90;;;;;;5015098;28;20041;-93
2022/11/02 02:13:54;;;;;;;3.30;0.20;;;12.30;99.90;;;;;;5014067;28;20125;-94
2022/11/02 02:16:38;;;;;;;3.35;0.20;;;12.20;99.90;;;;;;5012735;28;20030;-94
2022/11/02 02:19:15;;;;;;;8.90;0.30;;;12.10;99.90;;;;;;5016989;28;20029;-94
2022/11/02 02:21:51;;;;;;;4.07;0.25;;;12.10;99.90;;;;;;5013084;28;20034;-92
2022/11/02 02:24:42;;;;;;;4.45;0.45;;;12.00;99.90;;;;;;5011229;28;20022;-92
2022/11/02 02:27:14;;;;;;;6.53;0.30;;;12.00;99.90;;;;;;5025038;28;20048;-92
2022/11/02 02:30:01;;;;;;;5.28;0.45;;;11.90;99.90;;;;;;5016841;28;20041;-90
2022/11/02 02:32:38;;;;;;;3.45;0.30;;;11.90;99.90;;;;;;5021379;28;20029;-92
2022/11/02 02:35:14;;;;;;;4.70;0.30;;;11.80;99.90;;;;;;5031669;28;20546;-90
2022/11/02 02:38:26;;;;;;;5.10;0.30;;;11.80;99.90;;;;;;5032220;28;20033;-92
2022/11/02 02:40:59;;;;;;;6.03;0.43;;;11.80;99.90;;;;;;4922601;29;20050;-93
2022/11/02 02:43:34;;;;;;;8.15;0.35;;;11.80;99.90;;;;;;4938923;29;20076;-92
2022/11/02 02:46:08;;;;;;;5.15;0.30;;;11.90;99.90;;;;;;4991412;28;20057;-92
2022/11/02 02:48:37;;;;;;;7.50;0.52;;;11.90;99.90;;;;;;5031402;28;20033;-94
2022/11/02 02:51:15;;;;;;;4.13;0.30;;;12.00;99.90;;;;;;5029620;28;20040;-94
2022/11/02 02:53:48;;;;;;;6.60;0.40;;;12.00;99.90;;;;;;5013803;28;20133;-93
2022/11/02 02:56:17;;;;;;;4.78;0.40;;;12.00;99.90;;;;;;5023953;28;20034;-94
2022/11/02 02:59:03;;;;;;;5.15;0.50;;;12.00;99.90;;;;;;5035187;28;20076;-91
2022/11/02 03:01:30;;;;;;;4.95;0.40;;;11.90;99.90;;;;;;5013688;28;20164;-93
2022/11/02 03:03:56;;;;;;;7.05;0.50;;;11.90;99.90;;;;;;5016018;28;20064;-92
2022/11/02 03:06:26;;;;;;;7.05;1.02;;;11.90;99.90;;;;;;5032742;28;20152;-94
2022/11/02 03:09:22;;;;;;;7.78;0.30;;;11.90;99.90;;;;;;5030564;28;20029;-94
2022/11/02 03:12:19;;;;;;;9.45;0.45;;;11.90;99.90;;;;;;5016515;28;20151;-92
2022/11/02 03:15:10;;;;;;;9.60;0.50;;;11.90;99.90;;;;;;5020868;28;20049;-93
2022/11/02 03:17:53;;;;;;;7.32;0.47;;;12.00;99.90;;;;;;5025463;28;20117;-92
2022/11/02 03:20:49;;;;;;;6.60;0.73;;;12.00;99.90;;;;;;5033954;28;20057;-91
2022/11/02 03:23:42;;;;;;;10.65;0.73;;;12.10;99.90;;;;;;5007105;28;20053;-91
2022/11/02 03:26:24;;;;;;;9.15;0.50;;;12.10;99.90;;;;;;5034035;28;20069;-93
2022/11/02 03:28:56;;;;;;;10.52;0.45;;;12.10;99.90;;;;;;5018952;28;20021;-92
2022/11/02 03:31:40;;;;;;;6.72;0.77;;;12.00;99.90;;;;;;5016780;28;20045;-93
2022/11/02 03:34:36;;;;;;;11.98;0.50;;;12.00;99.90;;;;;;5038486;28;20041;-92
2022/11/02 03:37:13;;;;;;;6.45;0.40;;;12.00;99.90;;;;;;5023691;28;20032;-91
2022/11/02 03:39:44;;;;;;;8.63;0.35;;;12.00;99.90;;;;;;5023022;28;20033;-92
2022/11/02 03:42:13;;;;;;;9.88;0.63;;;12.00;99.90;;;;;;5018796;28;20021;-91
2022/11/02 03:44:40;;;;;;;10.90;0.57;;;12.00;99.90;;;;;;5035891;28;20105;-94
2022/11/02 03:47:10;;;;;;;10.07;0.60;;;12.00;99.90;;;;;;5019349;28;20111;-92
2022/11/02 03:49:38;;;;;;;10.73;0.85;;;12.00;99.90;;;;;;5022121;28;20112;-92
2022/11/02 03:52:10;;;;;;;7.30;0.60;;;11.90;99.90;;;;;;5017354;28;20151;-93
2022/11/02 03:54:50;;;;;;;11.80;0.80;;;11.90;99.90;;;;;;5016904;28;20021;-93
2022/11/02 03:57:22;;;;;;;5.32;0.50;;;11.80;99.90;;;;;;5034335;28;20436;-93
2022/11/02 03:59:47;;;;;;;;;;;11.80;99.90;;;;;;5018010;28;20039;-93
2022/11/02 04:02:14;;;;;;;9.00;0.60;;;11.80;99.90;;;;;;5033585;28;19909;-92
2022/11/02 04:04:50;;;;;;;8.88;0.50;;;11.80;99.90;;;;;;5016763;28;20075;-92
2022/11/02 04:07:22;;;;;;;8.60;0.60;;;11.80;99.90;;;;;;5034608;28;20524;-93
2022/11/02 04:09:48;;;;;;;7.85;0.50;;;11.90;99.90;;;;;;5035072;28;20374;-93
2022/11/02 04:15:00;;;;;;;4.57;0.40;;;11.90;99.90;;;;;;5034210;28;20087;-93
2022/11/02 04:20:10;;;;;;;8.20;0.60;;;11.90;99.90;;;;;;5033954;28;20124;-93
2022/11/02 04:25:20;;;;;;;9.27;0.50;;;11.90;99.90;;;;;;5031636;28;20444;-93
2022/11/02 04:27:50;;;;;;;10.07;0.88;;;11.90;99.90;;;;;;5015880;28;20030;-91
2022/11/02 04:30:21;;;;;;;11.80;0.60;;;11.90;99.90;;;;;;5015152;28;20041;-93
2022/11/02 04:35:34;;;;;;;8.00;0.70;;;12.00;99.90;;;;;;5032576;28;20032;-92
2022/11/02 04:40:44;;;;;;;10.20;0.90;;;12.00;99.90;;;;;;5033283;28;20043;-92
2022/11/02 04:43:10;;;;;;;11.25;0.65;;;12.00;99.90;;;;;;5014697;28;20029;-92
2022/11/02 04:45:36;;;;;;;7.53;0.60;;;12.10;99.90;;;;;;5014269;28;20033;-91
2022/11/02 04:48:04;;;;;;;11.98;0.50;;;12.10;99.90;;;;;;5015316;28;20474;-93
2022/11/02 04:50:29;;;;;;;8.85;0.70;;;12.10;99.90;;;;;;5016785;28;20389;-91
2022/11/02 04:52:57;;;;;;;10.65;0.65;;;12.10;99.90;;;;;;5017186;28;20114;-91
2022/11/02 04:55:22;;;;;;;7.20;0.50;;;12.20;99.90;;;;;;5012826;28;20120;-93
2022/11/02 04:57:48;;;;;;;4.80;0.60;;;12.20;99.90;;;;;;5021661;28;20427;-91
2022/11/02 05:00:14;;;;;;;10.25;0.80;;;12.20;99.90;;;;;;5023968;28;20036;-90
2022/11/02 05:02:40;;;;;;;9.75;0.80;;;12.20;99.90;;;;;;5014954;28;20028;-91
2022/11/02 05:05:06;;;;;;;10.02;1.23;;;12.20;99.90;;;;;;5019970;28;20033;-93
2022/11/02 05:07:31;;;;;;;8.02;0.50;;;12.30;99.90;;;;;;5015100;28;20049;-92
2022/11/02 05:09:57;;;;;;;9.38;0.75;;;12.30;99.90;;;;;;5016269;28;20063;-92
2022/11/02 05:12:22;;;;;;;13.45;0.80;;;12.30;99.90;;;;;;5012726;28;20025;-92
2022/11/02 05:14:48;;;;;;;12.48;1.27;;;12.30;99.90;;;;;;5032378;28;20133;-89
2022/11/02 05:17:15;;;;;;;8.00;0.57;;;12.30;99.90;;;;;;5013812;28;20025;-91
2022/11/02 05:19:40;;;;;;;6.40;0.60;;;12.40;99.90;;;;;;5013235;28;20032;-90
2022/11/02 05:22:06;;;;;;;9.43;1.02;;;12.40;99.90;;;;;;5033042;28;20466;-94
2022/11/02 05:24:32;;;;;;;14.50;0.80;;;12.40;99.90;;;;;;5015437;28;20080;-94
2022/11/02 05:26:59;;;;;;;10.95;1.58;;;12.40;99.90;;;;;;5016557;28;20044;-92
2022/11/02 05:29:25;;;;;;;9.70;1.92;;;12.40;99.90;;;;;;5031918;28;20094;-93
2022/11/02 05:31:50;;;;;;;15.15;1.02;;;12.40;99.90;;;;;;5029507;28;20071;-91
2022/11/02 05:34:16;;;;;;;12.68;0.93;;;12.40;99.90;;;;;;5018150;28;20026;-92
2022/11/02 05:36:42;;;;;;;10.48;0.77;;;12.40;99.90;;;;;;5021560;28;20036;-91
2022/11/02 05:39:07;;;;;;;10.50;0.82;;;12.40;99.90;;;;;;5017483;28;20194;-93
2022/11/02 05:41:33;;;;;;;10.13;0.77;;;12.50;99.90;;;;;;5018959;28;20045;-92
2022/11/02 05:43:58;;;;;;;6.82;0.50;;;12.50;99.90;;;;;;5017388;28;20040;-93
2022/11/02 05:46:24;;;;;;;14.82;0.98;;;12.40;99.90;;;;;;5018176;28;20045;-93
2022/11/02 05:48:50;;;;;;;8.32;0.98;;;12.40;99.90;;;;;;5015145;28;20033;-92
2022/11/02 05:51:15;;;;;;;9.77;0.93;;;12.30;99.90;;;;;;5015323;28;20087;-90
2022/11/02 05:53:41;;;;;;;7.43;0.88;;;12.30;99.90;;;;;;5016388;28;20036;-91
2022/11/02 05:56:09;;;;;;;9.75;0.85;;;12.20;99.90;;;;;;5012635;28;20047;-92
2022/11/02 05:58:36;;;;;;;11.93;1.05;;;12.20;99.90;;;;;;5015796;28;20021;-94
2022/11/02 06:01:03;;;;;;;10.65;1.30;;;12.10;99.90;;;;;;5031335;28;20017;-94
2022/11/02 06:03:30;;;;;;;12.80;1.35;;;12.10;99.90;;;;;;5012186;28;20017;-94
2022/11/02 06:06:01;;;;;;;9.82;0.75;;;12.00;99.90;;;;;;5011556;28;20465;-94
2022/11/02 06:08:26;;;;;;;8.75;0.90;;;12.00;99.90;;;;;;5016215;28;20029;-92
2022/11/02 06:10:53;;;;;;;13.55;1.35;;;12.00;99.90;;;;;;5011405;28;20033;-94
2022/11/02 06:13:18;;;;;;;6.50;0.50;;;11.90;99.90;;;;;;5012873;28;20030;-92
2022/11/02 06:15:44;;;;;;;5.35;0.50;;;12.00;99.90;;;;;;5011891;28;20374;-94
2022/11/02 06:18:09;;;;;;;6.80;0.63;;;12.00;99.90;;;;;;5013614;28;20028;-93
2022/11/02 06:20:35;;;;;;;12.40;1.10;;;12.00;99.90;;;;;;5030807;28;20036;-93
2022/11/02 06:23:01;;;;;;;9.40;0.73;;;11.90;99.90;;;;;;5017437;28;20022;-93
2022/11/02 06:25:27;;;;;;;11.38;0.65;;;12.00;99.90;;;;;;5017348;28;20478;-94
2022/11/02 06:27:55;;;;;;;12.23;0.98;;;11.90;99.90;;;;;;5016385;28;20037;-94
2022/11/02 06:30:23;;;;;;;6.55;0.50;;;11.80;99.90;;;;;;5031006;28;20038;-94
2022/11/02 06:32:52;;;;;;;12.20;1.00;;;11.80;99.90;;;;;;5011315;28;20033;-95
2022/11/02 06:35:19;;;;;;;11.52;1.30;;;11.80;99.90;;;;;;5016569;28;20119;-91
2022/11/02 06:37:45;;;;;;;10.32;0.60;;;11.80;99.90;;;;;;5026484;28;20064;-93
2022/11/02 06:40:11;;;;;;;6.20;0.50;;;11.70;99.90;;;;;;5013162;28;20017;-94
2022/11/02 06:42:37;;;;;;;7.90;0.80;;;11.70;99.90;;;;;;5013445;28;20033;-94
2022/11/02 06:45:03;;;;;;;8.73;0.70;;;11.60;99.90;;;;;;5014378;28;20033;-94
2022/11/02 06:47:36;;;;;;;10.05;0.52;;;11.50;99.90;;;;;;5017396;28;20770;-93
2022/11/02 06:50:04;;;;;;;11.23;0.75;;;11.60;99.90;;;;;;5030360;28;20021;-94
2022/11/02 06:52:29;;;;;;;9.45;0.80;;;11.50;99.90;;;;;;5022388;28;20474;-94
2022/11/02 06:54:55;;;;;;;14.40;1.35;;;11.50;99.90;;;;;;5014339;28;20044;-93
2022/11/02 06:57:21;;;;;;;9.85;0.70;;;11.40;99.90;;;;;;5010909;28;20511;-94
2022/11/02 06:59:47;;;;;;;11.00;0.70;;;11.40;99.90;;;;;;5012952;28;20049;-93
2022/11/02 07:02:13;;;;;;;10.85;1.77;;;11.40;99.90;;;;;;5016891;28;20030;-95
2022/11/02 07:04:39;;;;;;;9.95;0.95;;;11.30;99.90;;;;;;5013995;28;20033;-93
2022/11/02 07:07:05;;;;;;;12.95;0.60;;;11.30;99.90;;;;;;5015030;28;20614;-92
2022/11/02 07:09:31;;;;;;;6.60;0.60;;;11.30;99.90;;;;;;5018820;28;20389;-94
2022/11/02 07:11:56;;;;;;;7.55;0.63;;;11.30;99.90;;;;;;5018350;28;20033;-94
2022/11/02 07:14:22;;;;;;;9.20;0.73;;;11.30;99.90;;;;;;5038937;28;20034;-95
2022/11/02 07:16:47;;;;;;;9.43;0.73;;;11.30;99.90;;;;;;5015395;28;20025;-93
2022/11/02 07:19:13;;;;;;;10.80;0.50;;;11.30;99.90;;;;;;5019317;28;20064;-93
2022/11/02 07:21:38;;;;;;;8.80;0.70;;;11.30;99.90;;;;;;5015535;28;20032;-92
2022/11/02 07:24:04;;;;;;;5.93;1.02;;;11.30;99.90;;;;;;5012155;28;20029;-95
2022/11/02 07:26:30;;;;;;;8.43;0.80;;;11.30;99.90;;;;;;5030637;28;20048;-95
2022/11/02 07:28:55;;;;;;;9.63;0.77;;;11.30;99.90;;;;;;5015488;28;20075;-92
2022/11/02 07:31:21;;;;;;;10.20;1.05;;;11.30;99.90;;;;;;5018368;28;20049;-93
2022/11/02 07:33:47;;;;;;;10.13;0.85;;;11.30;99.90;;;;;;5025338;28;20025;-95
2022/11/02 07:36:12;;;;;;;7.32;0.50;;;11.40;99.90;;;;;;5013852;28;20433;-95
2022/11/02 07:38:38;;;;;;;13.48;0.90;;;11.30;99.90;;;;;;5015508;28;20414;-94
2022/11/02 07:41:04;;;;;;;11.82;1.67;;;11.30;99.90;;;;;;5015041;28;20151;-94
2022/11/02 07:43:29;;;;;;;8.82;0.57;;;11.40;99.90;;;;;;5011307;28;20033;-94
2022/11/02 07:45:55;;;;;;;7.93;0.70;;;11.40;99.90;;;;;;5014941;28;20037;-94
2022/11/02 07:48:21;;;;;;;14.20;0.98;;;11.40;99.90;;;;;;5013611;28;20567;-92
2022/11/02 07:50:47;;;;;;;10.75;0.70;;;11.40;99.90;;;;;;5015991;28;20108;-95
2022/11/02 07:53:12;;;;;;;9.60;0.60;;;11.50;99.90;;;;;;5015331;28;20021;-94
2022/11/02 07:55:38;;;;;;;7.88;0.70;;;11.40;99.90;;;;;;5010119;28;20738;-93
2022/11/02 07:58:09;;;;;;;13.32;0.52;;;11.50;99.90;;;;;;5011339;28;20554;-92
2022/11/02 08:00:37;;;;;;;12.82;0.98;;;11.50;99.90;;;;;;5015091;28;20037;-93
2022/11/02 08:03:05;;;;;;;9.90;0.47;;;11.60;99.90;;;;;;5029522;28;20095;-92
2022/11/02 08:05:33;;;;;;;12.30;0.88;;;11.60;99.90;;;;;;5012345;28;20102;-94
2022/11/02 08:08:17;;;;;;;10.38;0.50;;;11.60;99.90;;;;;;5029201;28;20025;-94
2022/11/02 08:10:44;;;;;;;6.50;1.08;;;11.70;99.90;;;;;;5019466;28;20022;-94
2022/11/02 08:13:13;;;;;;;7.82;0.50;;;11.70;99.90;;;;;;5009042;28;20048;-93
2022/11/02 08:15:39;;;;;;;10.77;0.82;;;11.80;99.90;;;;;;5034121;28;20021;-93
2022/11/02 08:18:06;;;;;;;5.47;0.40;;;11.80;99.90;;;;;;5010751;28;20091;-93
2022/11/02 08:20:33;;;;;;;5.68;0.60;;;11.90;99.90;;;;;;5015304;28;20021;-93
2022/11/02 08:23:00;;;;;;;8.30;0.80;;;11.90;99.90;;;;;;5031204;28;20034;-93
2022/11/02 08:25:26;;;;;;;12.02;0.52;;;11.90;99.90;;;;;;5014076;28;20033;-92
2022/11/02 08:27:57;;;;;;;8.50;0.70;;;12.00;99.90;;;;;;5011235;28;20389;-94
2022/11/02 08:30:22;;;;;;;6.15;0.70;;;12.10;99.90;;;;;;5013371;28;20041;-93
2022/11/02 08:32:48;;;;;;;8.68;0.90;;;12.20;99.90;;;;;;5017494;28;20367;-92
2022/11/02 08:35:13;;;;;;;6.07;0.75;;;12.30;99.90;;;;;;5010895;28;20437;-93
2022/11/02 08:37:39;;;;;;;8.40;0.70;;;12.30;99.90;;;;;;5016963;28;20061;-92
2022/11/02 08:40:05;;;;;;;9.18;0.82;;;12.30;99.90;;;;;;5010165;28;20030;-95
2022/11/02 08:42:31;;;;;;;8.95;0.50;;;12.30;99.90;;;;;;5006449;28;20030;-94
2022/11/02 08:44:56;;;;;;;6.00;0.80;;;12.40;99.90;;;;;;5009297;28;20497;-93
2022/11/02 08:47:23;;;;;;;5.00;0.43;;;12.40;99.90;;;;;;5012661;28;20041;-93
2022/11/02 08:49:50;;;;;;;11.00;0.70;;;12.50;99.90;;;;;;5017237;28;20018;-93
2022/11/02 08:52:16;;;;;;;8.77;0.80;;;12.50;99.90;;;;;;5013073;28;20026;-94
2022/11/02 08:54:42;;;;;;;7.93;0.60;;;12.50;99.90;;;;;;5017754;28;20017;-93
2022/11/02 08:57:08;;;;;;;7.60;0.70;;;12.50;99.90;;;;;;5012070;28;20057;-94
2022/11/02 08:59:33;;;;;;;7.53;0.60;;;12.50;99.90;;;;;;5015715;28;20034;-95
2022/11/02 09:01:59;;;;;;;8.50;0.50;;;12.60;99.90;;;;;;5019083;28;20030;-93
2022/11/02 09:04:25;;;;;;;6.45;0.70;;;12.60;99.90;;;;;;5021708;28;20045;-91
2022/11/02 09:06:50;;;;;;;5.40;0.65;;;12.60;99.90;;;;;;5021758;28;20049;-93
2022/11/02 09:09:16;;;;;;;4.60;0.50;;;12.60;99.90;;;;;;5021367;28;20032;-95
2022/11/02 09:11:42;;;;;;;5.75;0.55;;;12.70;99.90;;;;;;5016872;28;20029;-94
2022/11/02 09:14:07;;;;;;;10.75;1.00;;;12.70;99.90;;;;;;5011725;28;20038;-95
2022/11/02 09:16:33;;;;;;;7.80;0.70;;;12.70;99.90;;;;;;5027236;28;20033;-94
2022/11/02 09:18:59;;;;;;;11.10;0.60;;;12.80;99.90;;;;;;5012069;28;20029;-95
2022/11/02 09:21:24;;;;;;;7.82;0.60;;;12.80;99.90;;;;;;5012088;28;20489;-94
2022/11/02 09:23:50;;;;;;;8.13;0.63;;;12.80;99.90;;;;;;5021671;28;20025;-94
2022/11/02 09:26:15;;;;;;;10.15;0.73;;;12.80;99.90;;;;;;5014063;28;20049;-93
2022/11/02 09:28:41;;;;;;;11.80;0.95;;;12.80;99.90;;;;;;5016452;28;20018;-94
2022/11/02 09:31:07;;;;;;;7.50;0.60;;;12.90;99.90;;;;;;5019288;28;20406;-94
2022/11/02 09:33:34;;;;;;;9.02;0.80;;;12.90;99.90;;;;;;5015327;28;20021;-93
2022/11/02 09:36:04;;;;;;;6.72;0.47;;;12.90;99.90;;;;;;5014863;28;20037;-92
2022/11/02 09:38:30;;;;;;;8.02;0.60;;;13.00;99.90;;;;;;5011999;28;20620;-94
2022/11/02 09:40:58;;;;;;;9.55;0.70;;;13.00;99.90;;;;;;5017614;28;20069;-94
2022/11/02 09:44:04;;;;;;;9.52;0.80;;;13.00;99.90;;;;;;5031265;28;20026;-94
2022/11/02 09:46:37;;;;;;;10.32;0.90;;;13.10;99.90;;;;;;5037746;28;20552;-93
2022/11/02 09:49:04;;;;;;;;;;;13.10;99.90;;;;;;5020627;28;20033;-95
2022/11/02 09:51:36;;;;;;;7.32;0.50;;;13.00;99.90;;;;;;5022071;28;19909;-93
2022/11/02 09:54:18;;;;;;;9.60;0.60;;;13.10;99.90;;;;;;5017728;28;20122;-96
2022/11/02 09:56:44;;;;;;;14.27;1.08;;;13.20;99.90;;;;;;5010327;28;20033;-94
2022/11/02 09:59:16;;;;;;;7.88;0.70;;;13.20;99.90;;;;;;5014006;28;20041;-95
2022/11/02 10:02:01;;;;;;;6.87;0.60;;;13.20;99.90;;;;;;5017848;28;20036;-94
2022/11/02 10:04:39;;;;;;;9.25;0.60;;;13.20;99.90;;;;;;5014675;28;20302;-95
2022/11/02 10:07:11;;;;;;;10.45;0.50;;;13.20;99.90;;;;;;5018701;28;20037;-95
2022/11/02 10:09:44;;;;;;;10.07;0.77;;;13.20;99.90;;;;;;5018506;28;20057;-95
2022/11/02 10:12:22;;;;;;;7.97;0.63;;;13.20;99.90;;;;;;5027832;28;20036;-94
2022/11/02 10:14:57;;;;;;;11.13;0.50;;;13.30;99.90;;;;;;5036968;28;20469;-94
2022/11/02 10:17:27;;;;;;;8.30;0.80;;;13.40;99.90;;;;;;5014533;28;20018;-95
2022/11/02 10:19:56;;;;;;;8.25;1.05;;;13.40;99.90;;;;;;5017848;28;20029;-93
2022/11/02 10:22:28;;;;;;;7.88;0.60;;;13.40;99.90;;;;;;5026866;28;20040;-94
2022/11/02 10:24:56;;;;;;;11.15;1.20;;;13.50;99.90;;;;;;5015622;28;20109;-94
2022/11/02 10:27:27;;;;;;;9.15;0.82;;;13.50;99.90;;;;;;5016248;28;20042;-94
2022/11/02 10:30:00;;;;;;;7.47;0.63;;;13.60;99.90;;;;;;5011147;28;20064;-94
2022/11/02 10:32:26;;;;;;;10.00;0.85;;;13.60;99.90;;;;;;5019057;28;20029;-95
2022/11/02 10:34:52;;;;;;;13.88;0.70;;;13.60;99.90;;;;;;5017764;28;20026;-94
2022/11/02 10:37:37;;;;;;;11.25;0.70;;;13.60;99.90;;;;;;5020621;28;20120;-94
2022/11/02 10:40:16;;;;;;;7.22;0.80;;;13.70;99.90;;;;;;5009774;28;20022;-94
2022/11/02 10:42:58;;;;;;;10.45;1.00;;;13.70;99.90;;;;;;5021088;28;20021;-95
2022/11/02 10:45:32;;;;;;;13.88;1.23;;;13.70;99.90;;;;;;5032399;28;20072;-95
2022/11/02 10:48:22;;;;;;;11.05;0.75;;;13.80;99.90;;;;;;5017163;28;20042;-94
2022/11/02 10:51:00;;;;;;;9.73;1.05;;;13.80;99.90;;;;;;5030176;28;20022;-93
2022/11/02 10:53:25;;;;;;;11.00;0.68;;;13.90;99.90;;;;;;5032073;28;20049;-94
2022/11/02 10:56:02;;;;;;;10.05;2.00;;;13.90;99.90;;;;;;5013782;28;20029;-93
2022/11/02 10:58:32;;;;;;;7.95;0.80;;;13.90;99.90;;;;;;5039313;28;20036;-95
2022/11/02 11:01:09;;;;;;;10.68;1.00;;;14.00;99.90;;;;;;5007913;28;20029;-95
2022/11/02 11:04:02;;;;;;;8.70;0.90;;;14.10;99.90;;;;;;5019233;28;20512;-94
2022/11/02 11:06:36;;;;;;;10.05;0.80;;;14.00;99.90;;;;;;5014220;28;20037;-95
2022/11/02 11:09:20;;;;;;;10.57;0.60;;;14.10;99.90;;;;;;5018062;28;20116;-95
2022/11/02 11:11:57;;;;;;;5.53;0.60;;;14.20;99.90;;;;;;5007689;28;20025;-94
2022/11/02 11:14:24;;;;;;;10.05;0.60;;;14.30;99.90;;;;;;5012839;28;20085;-94
2022/11/02 11:16:56;;;;;;;8.77;0.90;;;14.30;99.90;;;;;;5040246;28;20049;-94
2022/11/02 11:19:33;;;;;;;5.15;0.57;;;14.30;99.90;;;;;;5018137;28;20029;-93
2022/11/02 11:22:00;;;;;;;10.82;0.50;;;14.20;99.90;;;;;;5020707;28;20030;-94
2022/11/02 11:24:27;;;;;;;12.73;0.90;;;14.30;99.90;;;;;;5037875;28;20022;-95
2022/11/02 11:27:11;;;;;;;15.98;0.77;;;14.40;99.90;;;;;;5023113;28;20037;-94
2022/11/02 11:29:39;;;;;;;7.50;0.60;;;14.50;99.90;;;;;;5035776;28;20385;-94
2022/11/02 11:32:23;;;;;;;7.93;0.50;;;14.50;99.90;;;;;;5026301;28;20436;-94
2022/11/02 11:35:18;;;;;;;9.07;1.13;;;14.60;99.90;;;;;;5031656;28;20025;-95
2022/11/02 11:38:00;;;;;;;6.88;0.93;;;14.70;99.90;;;;;;4998628;28;20034;-94
2022/11/02 11:40:31;;;;;;;7.70;0.73;;;14.70;99.90;;;;;;5019175;28;20037;-95
2022/11/02 11:42:57;;;;;;;13.73;0.73;;;14.70;99.90;;;;;;5009408;28;20112;-93
2022/11/02 11:45:24;;;;;;;9.32;0.88;;;14.80;99.90;;;;;;5020715;28;20025;-93
2022/11/02 11:47:56;;;;;;;9.20;0.60;;;14.80;99.90;;;;;;5021641;28;20164;-95
2022/11/02 11:50:22;;;;;;;;;;;14.80;99.90;;;;;;5012013;28;20025;-94
2022/11/02 11:53:12;;;;;;;9.73;0.50;;;14.80;99.90;;;;;;5017542;28;20242;-95
2022/11/02 11:55:47;;;;;;;7.45;0.63;;;14.90;99.90;;;;;;5017555;28;20033;-94
2022/11/02 11:58:15;;;;;;;9.75;0.70;;;14.80;99.90;;;;;;5016709;28;20026;-96
2022/11/02 12:00:41;;;;;;;8.55;0.77;;;14.60;99.90;;;;;;5019978;28;20087;-95
2022/11/02 12:03:12;;;;;;;12.18;0.80;;;14.50;99.90;;;;;;5018659;28;20021;-94
2022/11/02 12:05:56;;;;;;;8.80;0.85;;;14.50;99.90;;;;;;5018396;28;20044;-94
2022/11/02 12:08:29;;;;;;;12.18;1.02;;;14.50;99.90;;;;;;5010569;28;20061;-92
2022/11/02 12:11:02;;;;;;;11.27;0.50;;;14.50;99.90;;;;;;5019917;28;20025;-93
2022/11/02 12:13:47;;;;;;;11.30;0.45;;;14.60;99.90;;;;;;5009772;28;20481;-94
2022/11/02 12:16:24;;;;;;;10.40;1.08;;;14.80;99.90;;;;;;5031890;28;20052;-93
2022/11/02 12:19:38;;;;;;;9.15;0.60;;;14.90;99.90;;;;;;5025024;28;20101;-95
2022/11/02 12:22:14;;;;;;;7.97;0.63;;;14.90;99.90;;;;;;4957445;28;20031;-94
2022/11/02 12:25:02;;;;;;;8.35;0.63;;;15.00;99.90;;;;;;5007720;28;20069;-96
2022/11/02 12:27:34;;;;;;;8.10;0.82;;;15.00;99.90;;;;;;5019084;28;20097;-95
2022/11/02 12:30:17;;;;;;;7.93;0.60;;;14.90;99.90;;;;;;5013233;28;20038;-94
2022/11/02 12:33:03;;;;;;;8.00;0.57;;;14.70;99.90;;;;;;5021764;28;20036;-94
2022/11/02 12:35:41;;;;;;;6.30;0.40;;;14.50;99.90;;;;;;5022036;28;20473;-96
2022/11/02 12:38:34;;;;;;;6.95;0.45;;;14.40;99.90;;;;;;5021424;28;20520;-96
2022/11/02 12:41:07;;;;;;;6.72;1.10;;;14.50;99.90;;;;;;5021192;28;20393;-93
2022/11/02 12:43:48;;;;;;;9.20;0.63;;;14.60;99.90;;;;;;5017981;28;20033;-94
2022/11/02 12:46:45;;;;;;;12.32;0.60;;;14.70;99.90;;;;;;5019788;28;20215;-92
2022/11/02 12:49:13;;;;;;;7.28;0.80;;;14.70;99.90;;;;;;5017578;28;20496;-94
2022/11/02 12:51:46;;;;;;;9.32;0.95;;;14.80;99.90;;;;;;5017333;28;20038;-95
2022/11/02 12:54:19;;;;;;;11.40;0.68;;;15.00;99.90;;;;;;5014141;28;20120;-96
2022/11/02 12:56:51;;;;;;;7.68;0.75;;;15.10;99.90;;;;;;5018423;28;20029;-93
2022/11/02 12:59:26;;;;;;;5.88;0.50;;;15.20;99.90;;;;;;5019596;28;20022;-95
2022/11/02 13:02:02;;;;;;;7.97;0.50;;;15.20;99.90;;;;;;5029745;28;20043;-94
2022/11/02 13:04:38;;;;;;;11.18;0.63;;;15.20;99.60;;;;;;5009712;28;20183;-94
2022/11/02 13:07:12;;;;;;;6.47;0.50;;;15.20;99.40;;;;;;5017367;28;20386;-94
2022/11/02 13:09:48;;;;;;;6.90;0.65;;;15.10;98.70;;;;;;5015169;28;20033;-94
2022/11/02 13:12:19;;;;;;;8.60;0.63;;;15.00;99.00;;;;;;5034026;28;20250;-94
2022/11/02 13:14:51;;;;;;;7.65;0.60;;;15.10;99.30;;;;;;5017053;28;20026;-95
2022/11/02 13:17:25;;;;;;;3.40;0.40;;;15.10;99.50;;;;;;5018652;28;20390;-96